Time;durP1;ratioP1;P1;durP2;ratioP2;P2;SDS_P1;SDS_P2;PMS_P1;PMS_P2;Temp;Humidity;BMP_temperature;BMP_pressure;BME280_temperature;BME280_humidity;BME280_pressure;Samples;Min_cycle;Max_cycle;Signal;HPM_P1;HPM_P2
2021/12/11 00:01:03;;;;;;;0.00;0.00;;;-0.90;99.90;;;;;;5036544;28;20509;-81
2021/12/11 00:03:30;;;;;;;;;;;-0.90;99.90;;;;;;5020230;28;20057;-81
2021/12/11 00:06:11;;;;;;;0.00;0.00;;;-1.00;99.90;;;;;;5020336;28;19970;-81
2021/12/11 00:08:39;;;;;;;0.00;0.00;;;-1.00;99.90;;;;;;5020000;28;20061;-81
2021/12/11 00:11:39;;;;;;;0.00;0.00;;;-1.00;99.90;;;;;;5036755;28;20041;-82
2021/12/11 00:14:08;;;;;;;0.00;0.00;;;-1.00;99.90;;;;;;5016687;28;20053;-81
2021/12/11 00:16:35;;;;;;;0.00;0.00;;;-1.00;99.90;;;;;;5000211;28;20561;-81
2021/12/11 00:19:12;;;;;;;0.00;0.00;;;-1.10;99.90;;;;;;5017246;28;20252;-81
2021/12/11 00:21:39;;;;;;;0.03;0.03;;;-1.10;99.90;;;;;;5016727;28;20049;-82
2021/12/11 00:24:30;;;;;;;0.00;0.00;;;-1.10;99.90;;;;;;5016359;28;20086;-81
2021/12/11 00:27:21;;;;;;;0.00;0.00;;;-1.10;99.90;;;;;;5016926;28;20061;-80
2021/12/11 00:29:48;;;;;;;0.10;0.10;;;-1.10;99.90;;;;;;5016455;28;20057;-81
2021/12/11 00:32:23;;;;;;;0.00;0.00;;;-1.20;99.90;;;;;;5017612;28;20056;-81
2021/12/11 00:34:50;;;;;;;0.00;0.00;;;-1.20;99.90;;;;;;5076645;28;20048;-81
2021/12/11 00:37:19;;;;;;;0.00;0.00;;;-1.20;99.90;;;;;;5059129;28;20488;-81
2021/12/11 00:39:50;;;;;;;0.10;0.10;;;-1.30;99.90;;;;;;5059479;28;20052;-81
2021/12/11 00:42:17;;;;;;;0.00;0.00;;;-1.20;99.90;;;;;;5075913;28;20052;-81
2021/12/11 00:44:47;;;;;;;0.00;0.00;;;-1.30;99.90;;;;;;5058918;28;20134;-81
2021/12/11 00:47:14;;;;;;;0.60;0.22;;;-1.30;99.90;;;;;;5075807;28;20050;-81
2021/12/11 00:49:48;;;;;;;0.00;0.00;;;-1.20;99.90;;;;;;5080312;27;20061;-81
2021/12/11 00:52:15;;;;;;;0.00;0.00;;;-1.20;99.90;;;;;;5099472;27;20625;-82
2021/12/11 00:54:43;;;;;;;0.38;0.38;;;-1.30;99.90;;;;;;5099545;27;20086;-82
2021/12/11 00:57:19;;;;;;;0.00;0.00;;;-1.20;99.90;;;;;;5100664;27;20110;-82
2021/12/11 00:59:45;;;;;;;0.20;0.20;;;-1.20;99.90;;;;;;5117657;28;20130;-81
2021/12/11 01:02:12;;;;;;;0.00;0.00;;;-1.20;99.90;;;;;;5100228;27;20082;-81
2021/12/11 01:04:41;;;;;;;0.52;0.10;;;-1.20;99.90;;;;;;5117281;27;20043;-81
2021/12/11 01:07:19;;;;;;;0.00;0.00;;;-1.30;99.90;;;;;;5117312;27;20051;-81
2021/12/11 01:09:54;;;;;;;1.08;0.40;;;-1.30;99.90;;;;;;5118062;28;20386;-81
2021/12/11 01:12:26;;;;;;;0.00;0.00;;;-1.30;99.90;;;;;;5100310;27;20093;-81
2021/12/11 01:15:13;;;;;;;0.00;0.00;;;-1.30;99.90;;;;;;5099649;28;20475;-81
2021/12/11 01:18:21;;;;;;;0.00;0.00;;;-1.40;99.90;;;;;;5099904;28;20047;-81
2021/12/11 01:21:01;;;;;;;0.00;0.00;;;-1.40;99.90;;;;;;5099718;28;20040;-81
2021/12/11 01:25:59;;;;;;;0.75;0.22;;;-1.40;99.90;;;;;;5116191;28;20061;-81
2021/12/11 01:28:25;;;;;;;0.00;0.00;;;-1.40;99.90;;;;;;5116575;28;20075;-81
2021/12/11 01:30:51;;;;;;;0.00;0.00;;;-1.50;99.90;;;;;;5099140;28;20050;-82
2021/12/11 01:33:17;;;;;;;0.00;0.00;;;-1.50;99.90;;;;;;5098962;28;20059;-81
2021/12/11 01:35:43;;;;;;;0.00;0.00;;;-1.50;99.90;;;;;;5099075;28;20397;-82
2021/12/11 01:38:18;;;;;;;0.00;0.00;;;-1.50;99.90;;;;;;5098918;28;20043;-81
2021/12/11 01:40:47;;;;;;;0.20;0.20;;;-1.50;99.90;;;;;;5099367;28;20407;-81
2021/12/11 01:43:13;;;;;;;0.17;0.17;;;-1.50;99.90;;;;;;5116295;28;20394;-81
2021/12/11 01:45:46;;;;;;;0.20;0.20;;;-1.40;99.90;;;;;;5099154;28;20055;-81
2021/12/11 01:48:17;;;;;;;0.32;0.32;;;-1.40;99.90;;;;;;5099011;28;20111;-81
2021/12/11 01:50:45;;;;;;;0.00;0.00;;;-1.40;99.90;;;;;;5099653;28;20531;-82
2021/12/11 01:53:34;;;;;;;0.00;0.00;;;-1.40;99.90;;;;;;5099590;28;20066;-81
2021/12/11 01:56:05;;;;;;;2.17;0.47;;;-1.40;99.90;;;;;;5100542;28;20062;-81
2021/12/11 01:58:44;;;;;;;0.00;0.00;;;-1.40;99.90;;;;;;5117085;28;20043;-81
2021/12/11 02:01:22;;;;;;;0.00;0.00;;;-1.40;99.90;;;;;;5116857;28;20043;-81
2021/12/11 02:03:50;;;;;;;0.00;0.00;;;-1.40;99.90;;;;;;5100210;28;20382;-81
2021/12/11 02:06:16;;;;;;;0.00;0.00;;;-1.40;99.90;;;;;;5102338;27;20046;-81
2021/12/11 02:08:43;;;;;;;0.00;0.00;;;-1.50;99.90;;;;;;5103829;27;20500;-81
2021/12/11 02:11:14;;;;;;;0.00;0.00;;;-1.40;99.90;;;;;;5120840;27;20477;-81
2021/12/11 02:13:48;;;;;;;0.00;0.00;;;-1.40;99.90;;;;;;5103493;27;20443;-80
2021/12/11 02:16:32;;;;;;;0.00;0.00;;;-1.50;99.90;;;;;;5103782;27;20149;-81
2021/12/11 02:19:13;;;;;;;0.00;0.00;;;-1.50;99.90;;;;;;5120890;27;20046;-81
2021/12/11 02:21:49;;;;;;;0.00;0.00;;;-1.50;99.90;;;;;;5103660;27;20043;-81
2021/12/11 02:24:20;;;;;;;0.17;0.17;;;-1.50;99.90;;;;;;5119576;27;20513;-82
2021/12/11 02:26:47;;;;;;;0.00;0.00;;;-1.50;99.90;;;;;;5120039;27;20069;-81
2021/12/11 02:29:22;;;;;;;0.20;0.20;;;-1.50;99.90;;;;;;5102333;27;20043;-80
2021/12/11 02:32:02;;;;;;;1.15;0.28;;;-1.50;99.90;;;;;;5119734;27;20466;-81
2021/12/11 02:34:45;;;;;;;0.00;0.00;;;-1.60;99.90;;;;;;5102671;27;20588;-80
2021/12/11 02:37:39;;;;;;;0.20;0.20;;;-1.50;99.90;;;;;;5102462;27;20093;-82
2021/12/11 02:40:21;;;;;;;0.00;0.00;;;-1.50;99.90;;;;;;5102337;27;20054;-82
2021/12/11 02:42:59;;;;;;;0.00;0.00;;;-1.50;99.90;;;;;;5102172;27;20515;-82
2021/12/11 02:45:57;;;;;;;0.00;0.00;;;-1.50;99.90;;;;;;5119004;27;20035;-81
2021/12/11 02:48:33;;;;;;;0.00;0.00;;;-1.50;99.90;;;;;;5037421;28;20098;-81
2021/12/11 02:51:04;;;;;;;0.00;0.00;;;-1.50;99.90;;;;;;5021039;28;20061;-82
2021/12/11 02:53:38;;;;;;;0.00;0.00;;;-1.60;99.90;;;;;;5020943;28;20060;-82
2021/12/11 02:56:03;;;;;;;1.70;0.75;;;-1.60;99.90;;;;;;5037290;28;20071;-82
2021/12/11 02:58:33;;;;;;;0.00;0.00;;;-1.60;99.90;;;;;;5020826;28;20076;-81
2021/12/11 03:01:06;;;;;;;0.03;0.03;;;-1.60;99.90;;;;;;5037624;28;20528;-82
2021/12/11 03:03:37;;;;;;;0.00;0.00;;;-1.60;99.90;;;;;;5020672;28;20045;-81
2021/12/11 03:06:17;;;;;;;0.10;0.10;;;-1.60;99.90;;;;;;5020483;28;20049;-82
2021/12/11 03:08:43;;;;;;;0.00;0.00;;;-1.60;99.90;;;;;;5020626;28;20131;-82
2021/12/11 03:11:14;;;;;;;0.00;0.00;;;-1.70;99.90;;;;;;5020475;28;20060;-81
2021/12/11 03:13:40;;;;;;;0.03;0.03;;;-1.70;99.90;;;;;;5020528;28;20064;-82
2021/12/11 03:16:09;;;;;;;0.32;0.32;;;-1.60;99.90;;;;;;5021049;28;20384;-82
2021/12/11 03:18:35;;;;;;;0.00;0.00;;;-1.60;99.90;;;;;;5021070;28;20065;-81
2021/12/11 03:21:02;;;;;;;0.00;0.00;;;-1.60;99.90;;;;;;5021278;28;20472;-81
2021/12/11 03:23:27;;;;;;;0.00;0.00;;;-1.60;99.90;;;;;;5046014;27;20054;-81
2021/12/11 03:25:53;;;;;;;1.23;0.85;;;-1.60;99.90;;;;;;5102902;27;20470;-81
2021/12/11 03:28:22;;;;;;;0.00;0.00;;;-1.60;99.90;;;;;;5102312;27;20554;-82
2021/12/11 03:30:57;;;;;;;0.00;0.00;;;-1.60;99.90;;;;;;5101937;27;20096;-81
2021/12/11 03:33:27;;;;;;;0.03;0.03;;;-1.70;99.90;;;;;;5102566;27;20047;-81
2021/12/11 03:35:55;;;;;;;0.28;0.20;;;-1.60;99.90;;;;;;5119069;27;20489;-82
2021/12/11 03:38:22;;;;;;;0.00;0.00;;;-1.60;99.90;;;;;;5102076;27;20074;-81
2021/12/11 03:40:47;;;;;;;0.00;0.00;;;-1.70;99.90;;;;;;5118908;27;20134;-82
2021/12/11 03:43:17;;;;;;;0.00;0.00;;;-1.60;99.90;;;;;;5119264;27;20071;-81
2021/12/11 03:45:46;;;;;;;0.00;0.00;;;-1.60;99.90;;;;;;5118727;27;20470;-81
2021/12/11 03:48:19;;;;;;;0.05;0.05;;;-1.60;99.90;;;;;;5102021;27;20111;-81
2021/12/11 03:50:46;;;;;;;0.00;0.00;;;-1.60;99.90;;;;;;5102069;27;20091;-81
2021/12/11 03:53:14;;;;;;;0.00;0.00;;;-1.70;99.90;;;;;;5101192;27;20043;-81
2021/12/11 03:55:48;;;;;;;0.00;0.00;;;-1.60;99.90;;;;;;5100903;27;20051;-81
2021/12/11 03:58:14;;;;;;;0.00;0.00;;;-1.60;99.90;;;;;;5100360;27;20066;-81
2021/12/11 04:00:46;;;;;;;0.00;0.00;;;-1.60;99.90;;;;;;5100938;27;20039;-81
2021/12/11 04:03:15;;;;;;;0.17;0.17;;;-1.60;99.90;;;;;;5118042;27;20127;-81
2021/12/11 04:05:43;;;;;;;0.00;0.00;;;-1.50;99.90;;;;;;5100472;27;20055;-82
2021/12/11 04:08:11;;;;;;;0.00;0.00;;;-1.60;99.90;;;;;;5100879;27;20434;-82
2021/12/11 04:10:37;;;;;;;0.00;0.00;;;-1.60;99.90;;;;;;5100885;27;20504;-82
2021/12/11 04:13:06;;;;;;;7.90;0.75;;;-1.60;99.90;;;;;;5100456;27;20119;-82
2021/12/11 04:15:32;;;;;;;0.20;0.10;;;-1.60;99.90;;;;;;5117024;27;20494;-81
2021/12/11 04:17:59;;;;;;;0.00;0.00;;;-1.60;99.90;;;;;;5117321;27;20078;-81
2021/12/11 04:20:28;;;;;;;0.00;0.00;;;-1.60;99.90;;;;;;5100540;27;20370;-82
2021/12/11 04:22:55;;;;;;;0.00;0.00;;;-1.60;99.90;;;;;;5118215;27;20043;-82
2021/12/11 04:25:24;;;;;;;0.00;0.00;;;-1.60;99.90;;;;;;5100768;27;20043;-82
2021/12/11 04:27:50;;;;;;;0.00;0.00;;;-1.60;99.90;;;;;;5101172;28;20058;-82
2021/12/11 04:30:19;;;;;;;0.00;0.00;;;-1.60;99.90;;;;;;5101091;27;20100;-82
2021/12/11 04:32:46;;;;;;;0.00;0.00;;;-1.60;99.90;;;;;;5118236;27;20039;-81
2021/12/11 04:35:13;;;;;;;0.00;0.00;;;-1.60;99.90;;;;;;5100137;27;20055;-81
2021/12/11 04:37:41;;;;;;;0.40;0.40;;;-1.60;99.90;;;;;;5100155;27;20063;-81
2021/12/11 04:40:14;;;;;;;0.00;0.00;;;-1.70;99.90;;;;;;5100396;27;20402;-81
2021/12/11 04:42:53;;;;;;;0.00;0.00;;;-1.70;99.90;;;;;;5099971;27;20054;-81
2021/12/11 04:45:30;;;;;;;0.00;0.00;;;-1.70;99.90;;;;;;5100015;27;20054;-81
2021/12/11 04:48:04;;;;;;;0.00;0.00;;;-1.70;99.90;;;;;;5100189;27;20047;-82
2021/12/11 04:51:00;;;;;;;0.00;0.00;;;-1.70;99.90;;;;;;5116849;27;20112;-81
2021/12/11 05:12:08;;;;;;;0.00;0.00;;;-1.70;99.90;;;;;;5117678;27;20047;-82
2021/12/11 05:14:36;;;;;;;0.00;0.00;;;-1.70;99.90;;;;;;5100376;28;20042;-81
2021/12/11 05:17:03;;;;;;;0.00;0.00;;;-1.70;99.90;;;;;;5117608;28;20058;-81
2021/12/11 05:19:32;;;;;;;0.00;0.00;;;-1.70;99.90;;;;;;5117436;28;20089;-82
2021/12/11 05:21:58;;;;;;;0.10;0.10;;;-1.70;99.90;;;;;;5117284;28;20039;-82
2021/12/11 05:24:24;;;;;;;0.00;0.00;;;-1.60;99.90;;;;;;5117266;28;20078;-82
2021/12/11 05:26:50;;;;;;;0.57;0.22;;;-1.60;99.90;;;;;;5099771;28;20149;-82
2021/12/11 05:29:16;;;;;;;0.20;0.20;;;-1.50;99.90;;;;;;5100484;28;20143;-82
2021/12/11 05:31:42;;;;;;;0.00;0.00;;;-1.50;99.90;;;;;;5117344;28;20077;-82
2021/12/11 05:34:08;;;;;;;0.00;0.00;;;-1.30;99.90;;;;;;5100129;28;20086;-82
2021/12/11 05:36:35;;;;;;;0.00;0.00;;;-1.40;99.90;;;;;;5096470;28;20422;-82
2021/12/11 05:39:06;;;;;;;0.77;0.17;;;-1.30;99.90;;;;;;5114643;28;20044;-82
2021/12/11 05:41:32;;;;;;;0.10;0.10;;;-1.30;99.90;;;;;;5118117;28;20054;-82
2021/12/11 05:43:58;;;;;;;0.00;0.00;;;-1.30;99.90;;;;;;5117986;28;20044;-82
2021/12/11 05:46:25;;;;;;;0.75;0.57;;;-1.30;99.90;;;;;;5100835;28;20389;-82
2021/12/11 05:48:52;;;;;;;0.00;0.00;;;-1.30;99.90;;;;;;5101225;28;20051;-82
2021/12/11 05:51:22;;;;;;;0.30;0.30;;;-1.40;99.90;;;;;;5117922;28;20079;-82
2021/12/11 05:53:50;;;;;;;0.22;0.22;;;-1.40;99.90;;;;;;5117836;28;20047;-82
2021/12/11 05:56:17;;;;;;;0.00;0.00;;;-1.50;99.90;;;;;;5100538;28;20051;-83
2021/12/11 06:01:28;;;;;;;0.00;0.00;;;-1.40;99.90;;;;;;5117769;28;20124;-82
2021/12/11 06:03:55;;;;;;;0.00;0.00;;;-1.40;99.90;;;;;;5101154;28;20084;-82
2021/12/11 06:06:23;;;;;;;2.20;0.43;;;-1.40;99.90;;;;;;5098642;28;20099;-82
2021/12/11 06:08:49;;;;;;;0.00;0.00;;;-1.40;99.90;;;;;;5080056;28;20480;-82
2021/12/11 06:11:16;;;;;;;0.13;0.13;;;-1.30;99.90;;;;;;5079631;28;20047;-82
2021/12/11 06:13:42;;;;;;;0.68;0.68;;;-1.30;99.90;;;;;;5079874;28;20052;-82
2021/12/11 06:16:09;;;;;;;0.80;0.52;;;-1.30;99.90;;;;;;5097294;28;20052;-82
2021/12/11 06:18:35;;;;;;;1.98;0.85;;;-1.30;99.90;;;;;;5079824;28;20185;-82
2021/12/11 06:21:01;;;;;;;1.98;1.02;;;-1.30;99.90;;;;;;5097165;28;20107;-82
2021/12/11 06:23:28;;;;;;;0.30;0.30;;;-1.10;99.90;;;;;;5096680;28;20043;-82
2021/12/11 06:25:55;;;;;;;0.00;0.00;;;-1.40;99.90;;;;;;5096232;28;20044;-83
2021/12/11 06:28:22;;;;;;;0.00;0.00;;;-1.40;99.90;;;;;;5079949;28;20055;-83
2021/12/11 06:30:48;;;;;;;0.00;0.00;;;-1.50;99.90;;;;;;5079750;28;20098;-83
2021/12/11 06:33:14;;;;;;;0.00;0.00;;;-1.50;99.90;;;;;;5096627;28;20047;-83
2021/12/11 06:35:54;;;;;;;0.00;0.00;;;-1.60;99.90;;;;;;5085462;28;20048;-83
2021/12/11 06:38:24;;;;;;;0.00;0.00;;;-1.60;99.90;;;;;;5116196;28;20384;-82
2021/12/11 06:40:52;;;;;;;0.00;0.00;;;-1.70;99.90;;;;;;5099082;28;20051;-83
2021/12/11 06:43:18;;;;;;;0.17;0.17;;;-1.70;99.90;;;;;;5113725;28;20039;-83
2021/12/11 06:45:45;;;;;;;0.00;0.00;;;-1.70;99.90;;;;;;5142679;27;20051;-82
2021/12/11 06:48:11;;;;;;;0.10;0.10;;;-1.80;99.90;;;;;;5115378;28;20156;-83
2021/12/11 06:50:37;;;;;;;0.00;0.00;;;-1.80;99.90;;;;;;5112235;28;20055;-83
2021/12/11 06:53:10;;;;;;;4.07;0.52;;;-1.80;99.90;;;;;;5115838;28;20039;-82
2021/12/11 06:55:37;;;;;;;0.43;0.43;;;-1.70;99.90;;;;;;5099412;28;20055;-83
2021/12/11 06:58:03;;;;;;;0.10;0.10;;;-1.70;99.90;;;;;;5098943;28;20058;-83
2021/12/11 07:00:29;;;;;;;0.35;0.35;;;-1.60;99.90;;;;;;5115281;28;20483;-82
2021/12/11 07:03:01;;;;;;;0.00;0.00;;;-1.70;99.90;;;;;;5097746;28;20045;-83
2021/12/11 07:05:27;;;;;;;0.00;0.00;;;-1.70;99.90;;;;;;5097574;28;20130;-83
2021/12/11 07:07:53;;;;;;;0.00;0.00;;;-1.80;99.90;;;;;;5131821;27;20539;-82
2021/12/11 07:10:20;;;;;;;0.00;0.00;;;-1.80;99.90;;;;;;5132517;27;20128;-82
2021/12/11 07:12:50;;;;;;;0.00;0.00;;;-1.80;99.90;;;;;;5132391;27;20047;-82
2021/12/11 07:15:17;;;;;;;0.47;0.47;;;-1.80;99.90;;;;;;5098243;28;20097;-82
2021/12/11 07:17:43;;;;;;;0.00;0.00;;;-1.90;99.90;;;;;;5115337;28;20048;-82
2021/12/11 07:20:11;;;;;;;0.00;0.00;;;-1.90;99.90;;;;;;5149617;27;20462;-82
2021/12/11 07:22:40;;;;;;;0.00;0.00;;;-2.00;99.90;;;;;;5098203;28;20043;-83
2021/12/11 07:25:26;;;;;;;0.00;0.00;;;-2.00;99.90;;;;;;5113395;28;20498;-85
2021/12/11 07:28:01;;;;;;;0.00;0.00;;;-2.00;99.90;;;;;;5096765;28;20071;-86
2021/12/11 07:30:27;;;;;;;0.10;0.10;;;-2.00;99.90;;;;;;5113250;28;20555;-85
2021/12/11 07:32:59;;;;;;;0.00;0.00;;;-2.00;99.90;;;;;;5124978;27;20131;-84
2021/12/11 07:35:25;;;;;;;0.70;0.38;;;-2.00;99.90;;;;;;5098383;27;20411;-83
2021/12/11 07:37:52;;;;;;;0.00;0.00;;;-2.00;99.90;;;;;;5116821;27;20126;-82
2021/12/11 07:40:20;;;;;;;1.70;0.13;;;-1.90;99.90;;;;;;5099806;27;20053;-85
2021/12/11 07:42:46;;;;;;;2.30;0.10;;;-1.90;99.90;;;;;;5099974;27;20047;-86
2021/12/11 07:45:12;;;;;;;0.00;0.00;;;-1.90;99.90;;;;;;5117334;27;20130;-82
2021/12/11 07:47:38;;;;;;;4.00;0.57;;;-1.90;99.90;;;;;;5117371;27;20076;-83
2021/12/11 07:50:05;;;;;;;0.00;0.00;;;-1.90;99.90;;;;;;5100689;27;20082;-85
2021/12/11 07:52:30;;;;;;;0.00;0.00;;;-1.90;99.90;;;;;;5100512;27;20482;-84
2021/12/11 07:54:59;;;;;;;0.00;0.00;;;-1.90;99.90;;;;;;5126388;27;20043;-85
2021/12/11 07:57:24;;;;;;;0.00;0.00;;;-1.90;99.90;;;;;;5100629;27;20050;-86
2021/12/11 07:59:50;;;;;;;0.00;0.00;;;-1.80;99.90;;;;;;5101816;27;20054;-85
2021/12/11 08:02:19;;;;;;;0.00;0.00;;;-1.70;99.90;;;;;;5099875;28;20051;-86
2021/12/11 08:04:44;;;;;;;0.00;0.00;;;-1.70;99.90;;;;;;5096975;27;20781;-86
2021/12/11 08:07:10;;;;;;;0.00;0.00;;;-1.80;99.90;;;;;;5116660;27;20164;-85
2021/12/11 08:09:36;;;;;;;0.05;0.05;;;-1.70;99.90;;;;;;5140284;27;20081;-86
2021/12/11 08:12:03;;;;;;;0.00;0.00;;;-1.60;99.90;;;;;;5117117;27;20147;-87
2021/12/11 08:14:31;;;;;;;0.00;0.00;;;-1.60;99.90;;;;;;5100074;27;20058;-87
2021/12/11 08:16:59;;;;;;;0.00;0.00;;;-1.60;99.90;;;;;;5099039;27;20553;-85
2021/12/11 08:19:27;;;;;;;0.00;0.00;;;-1.40;99.90;;;;;;5099025;27;20126;-84
2021/12/11 08:21:56;;;;;;;0.08;0.08;;;-1.50;99.90;;;;;;5116803;27;20043;-83
2021/12/11 08:24:23;;;;;;;0.30;0.30;;;-1.40;99.90;;;;;;5099628;27;20407;-83
2021/12/11 08:26:52;;;;;;;0.00;0.00;;;-1.40;99.90;;;;;;5131795;27;20075;-85
2021/12/11 08:29:19;;;;;;;0.00;0.00;;;-1.40;99.90;;;;;;5099746;27;20508;-83
2021/12/11 08:31:49;;;;;;;0.00;0.00;;;-1.40;99.90;;;;;;5116461;27;20066;-83
2021/12/11 08:34:15;;;;;;;0.00;0.00;;;-1.30;99.90;;;;;;5099550;27;20039;-83
2021/12/11 08:36:43;;;;;;;0.00;0.00;;;-1.30;99.90;;;;;;5099878;27;20115;-83
2021/12/11 08:39:12;;;;;;;0.00;0.00;;;-1.30;99.90;;;;;;5151561;27;20039;-83
2021/12/11 08:41:39;;;;;;;0.10;0.10;;;-1.20;99.90;;;;;;5116948;27;20078;-83
2021/12/11 08:44:11;;;;;;;0.00;0.00;;;-0.80;99.90;;;;;;5116252;27;20058;-83
2021/12/11 08:46:39;;;;;;;0.70;0.45;;;0.00;99.90;;;;;;5099942;27;20126;-83
2021/12/11 08:49:10;;;;;;;0.40;0.40;;;0.80;99.90;;;;;;5100059;27;20051;-82
2021/12/11 08:51:48;;;;;;;7.50;0.88;;;1.40;99.90;;;;;;5099962;27;20043;-82
2021/12/11 08:54:18;;;;;;;0.63;0.32;;;2.00;99.90;;;;;;5099757;27;20088;-83
2021/12/11 08:56:44;;;;;;;0.45;0.45;;;2.70;99.90;;;;;;5116602;27;20371;-83
2021/12/11 08:59:14;;;;;;;0.47;0.47;;;3.30;99.90;;;;;;5099390;27;20058;-82
2021/12/11 09:01:48;;;;;;;0.10;0.10;;;3.70;99.90;;;;;;5100130;27;20050;-83
2021/12/11 09:04:23;;;;;;;0.20;0.13;;;3.80;99.90;;;;;;5099563;27;20152;-83
2021/12/11 09:06:55;;;;;;;0.00;0.00;;;3.90;99.90;;;;;;5117351;27;20066;-83
2021/12/11 09:09:42;;;;;;;0.22;0.22;;;3.80;99.90;;;;;;5099488;27;20091;-83
2021/12/11 09:12:10;;;;;;;0.57;0.57;;;3.50;99.90;;;;;;5099177;27;20518;-83
2021/12/11 09:15:05;;;;;;;0.68;0.20;;;3.50;99.90;;;;;;5099280;28;20091;-83
2021/12/11 09:17:41;;;;;;;1.45;0.43;;;3.50;99.90;;;;;;5034465;28;20057;-82
2021/12/11 09:20:13;;;;;;;2.45;0.60;;;3.70;99.90;;;;;;5018883;28;20139;-82
2021/12/11 09:22:54;;;;;;;0.00;0.00;;;4.20;99.90;;;;;;5019064;28;20507;-82
2021/12/11 09:25:38;;;;;;;0.38;0.25;;;4.80;99.90;;;;;;5018999;28;20537;-82
2021/12/11 09:28:23;;;;;;;0.52;0.50;;;5.30;99.90;;;;;;5035591;28;20049;-82
2021/12/11 09:31:06;;;;;;;0.00;0.00;;;5.60;99.90;;;;;;5035327;28;20056;-82
2021/12/11 09:33:37;;;;;;;0.30;0.13;;;6.00;99.90;;;;;;5034266;28;20053;-83
2021/12/11 09:36:19;;;;;;;0.70;0.70;;;6.30;99.90;;;;;;5019274;28;20095;-82
2021/12/11 09:38:50;;;;;;;3.50;1.23;;;6.60;99.90;;;;;;5019240;28;20045;-82
2021/12/11 09:41:19;;;;;;;0.80;0.32;;;7.10;99.50;;;;;;5019530;28;20061;-82
2021/12/11 09:44:04;;;;;;;0.55;0.52;;;7.40;98.90;;;;;;5018182;28;20045;-82
2021/12/11 09:46:40;;;;;;;1.15;0.82;;;7.60;97.60;;;;;;5018164;28;20570;-81
2021/12/11 09:49:08;;;;;;;1.17;0.98;;;7.70;96.70;;;;;;5018609;28;20432;-80
2021/12/11 09:51:40;;;;;;;0.88;0.73;;;7.80;96.50;;;;;;5018784;28;20049;-81
2021/12/11 09:54:23;;;;;;;0.20;0.20;;;7.90;95.50;;;;;;5049107;28;20055;-81
2021/12/11 09:56:58;;;;;;;0.47;0.38;;;7.90;95.90;;;;;;5116782;28;20074;-82
2021/12/11 09:59:26;;;;;;;;;;;7.70;96.10;;;;;;5100146;28;20494;-81
2021/12/11 10:01:56;;;;;;;0.38;0.30;;;7.60;96.50;;;;;;5099496;28;19919;-81
2021/12/11 10:04:30;;;;;;;0.15;0.15;;;7.30;97.20;;;;;;5099149;27;20570;-81
2021/12/11 10:09:31;;;;;;;1.33;0.55;;;6.90;98.30;;;;;;5116814;28;20047;-81
2021/12/11 10:12:02;;;;;;;0.95;0.35;;;6.70;99.30;;;;;;5100002;28;20054;-80
2021/12/11 10:14:35;;;;;;;0.82;0.82;;;6.50;99.50;;;;;;5099461;28;20555;-81
2021/12/11 10:17:08;;;;;;;0.88;0.17;;;6.50;99.90;;;;;;5116188;28;20406;-81
2021/12/11 10:19:35;;;;;;;0.68;0.43;;;6.70;99.90;;;;;;5117075;28;20075;-81
2021/12/11 10:22:20;;;;;;;0.10;0.10;;;7.30;99.90;;;;;;5116405;28;20039;-80
2021/12/11 10:24:48;;;;;;;0.30;0.20;;;7.70;98.70;;;;;;5099746;28;20047;-80
2021/12/11 10:27:19;;;;;;;0.10;0.10;;;7.90;98.00;;;;;;5118677;27;20043;-80
2021/12/11 10:29:45;;;;;;;0.00;0.00;;;8.20;97.30;;;;;;5103511;27;20133;-80
2021/12/11 10:32:17;;;;;;;0.85;0.50;;;8.70;95.60;;;;;;5104445;27;20461;-80
2021/12/11 10:34:46;;;;;;;0.52;0.52;;;9.20;94.90;;;;;;5103562;27;20049;-81
2021/12/11 10:37:36;;;;;;;0.63;0.20;;;9.30;93.10;;;;;;5102457;27;20062;-80
2021/12/11 10:40:14;;;;;;;0.45;0.30;;;9.40;92.30;;;;;;5119239;27;20394;-81
2021/12/11 10:42:41;;;;;;;5.32;2.08;;;9.20;93.20;;;;;;5120008;27;20417;-81
2021/12/11 10:45:09;;;;;;;0.08;0.08;;;9.10;93.30;;;;;;5102236;27;20509;-81
2021/12/11 10:47:40;;;;;;;1.02;0.63;;;9.30;93.50;;;;;;5119994;27;20047;-81
2021/12/11 10:50:15;;;;;;;0.17;0.10;;;9.60;93.10;;;;;;5103108;27;20047;-81
2021/12/11 10:52:41;;;;;;;0.85;0.28;;;9.90;91.80;;;;;;5102926;27;20470;-81
2021/12/11 10:55:11;;;;;;;0.25;0.25;;;10.10;91.20;;;;;;5103521;27;20047;-81
2021/12/11 10:57:37;;;;;;;0.43;0.43;;;10.40;90.80;;;;;;5103313;27;20069;-81
2021/12/11 11:00:14;;;;;;;1.00;0.93;;;10.50;89.10;;;;;;5120050;27;20076;-82
2021/12/11 11:02:42;;;;;;;0.52;0.52;;;10.60;87.20;;;;;;5102437;27;20055;-82
2021/12/11 11:05:13;;;;;;;0.90;0.90;;;10.70;86.60;;;;;;5102197;27;20043;-82
2021/12/11 11:07:40;;;;;;;0.73;0.60;;;10.70;85.50;;;;;;5103086;27;20112;-82
2021/12/11 11:10:27;;;;;;;0.75;0.35;;;10.70;83.10;;;;;;5119323;27;20055;-82
2021/12/11 11:12:54;;;;;;;0.93;0.50;;;10.80;83.70;;;;;;5102752;27;20039;-82
2021/12/11 11:15:22;;;;;;;0.43;0.30;;;10.80;83.60;;;;;;5119000;27;20137;-82
2021/12/11 11:17:49;;;;;;;2.95;0.50;;;10.80;84.10;;;;;;5101188;27;20119;-82
2021/12/11 11:20:19;;;;;;;0.20;0.20;;;10.90;83.30;;;;;;5118667;27;20475;-82
2021/12/11 11:22:46;;;;;;;3.03;0.20;;;10.50;84.60;;;;;;5101150;27;20051;-82
2021/12/11 11:25:44;;;;;;;2.15;0.95;;;10.10;88.10;;;;;;5100743;27;20050;-82
2021/12/11 11:28:17;;;;;;;0.52;0.50;;;9.50;90.60;;;;;;5020403;28;20060;-82
2021/12/11 11:30:50;;;;;;;2.38;0.30;;;8.90;92.30;;;;;;5020502;28;20089;-81
2021/12/11 11:33:16;;;;;;;1.02;0.73;;;8.50;94.00;;;;;;5036499;28;20554;-80
2021/12/11 11:35:44;;;;;;;1.40;0.45;;;8.50;95.70;;;;;;5036932;28;20057;-81
2021/12/11 11:38:19;;;;;;;0.20;0.20;;;7.80;97.00;;;;;;5020211;28;20083;-81
2021/12/11 11:40:47;;;;;;;0.55;0.40;;;7.60;98.00;;;;;;5036864;28;20045;-81
2021/12/11 11:43:15;;;;;;;0.10;0.10;;;7.60;98.70;;;;;;5020065;28;20049;-81
2021/12/11 11:45:41;;;;;;;0.25;0.17;;;7.70;98.80;;;;;;5020313;28;20080;-81
2021/12/11 11:48:08;;;;;;;0.15;0.15;;;8.00;97.70;;;;;;5019482;28;20061;-81
2021/12/11 11:50:38;;;;;;;0.20;0.20;;;8.60;97.10;;;;;;5036480;28;20052;-81
2021/12/11 11:53:05;;;;;;;0.10;0.10;;;9.00;95.70;;;;;;5036551;28;20041;-82
2021/12/11 11:55:39;;;;;;;2.88;0.73;;;9.50;94.20;;;;;;5036262;28;20531;-81
2021/12/11 11:58:05;;;;;;;0.15;0.10;;;9.80;93.40;;;;;;5020162;28;20061;-81
2021/12/11 12:00:45;;;;;;;0.63;0.63;;;10.00;92.90;;;;;;5019458;28;20546;-81
2021/12/11 12:03:16;;;;;;;0.08;0.08;;;10.10;91.90;;;;;;5019788;28;20056;-81
2021/12/11 12:05:45;;;;;;;0.88;0.65;;;10.00;91.60;;;;;;5117562;27;20050;-81
2021/12/11 12:08:13;;;;;;;0.22;0.22;;;10.00;91.90;;;;;;5101803;27;20398;-81
2021/12/11 12:10:39;;;;;;;0.05;0.00;;;10.00;92.00;;;;;;5118499;27;20039;-82
2021/12/11 12:13:07;;;;;;;0.90;0.65;;;9.90;92.30;;;;;;5101453;27;20043;-81
2021/12/11 12:15:45;;;;;;;0.40;0.40;;;10.00;92.30;;;;;;5101474;27;20035;-82
2021/12/11 12:18:12;;;;;;;1.98;0.95;;;9.80;92.70;;;;;;5101484;27;20055;-82
2021/12/11 12:20:40;;;;;;;2.35;0.93;;;9.70;93.10;;;;;;5101397;27;20142;-81
2021/12/11 12:23:08;;;;;;;0.90;0.38;;;9.20;94.20;;;;;;5117855;27;20043;-81
2021/12/11 12:25:35;;;;;;;4.28;0.65;;;8.70;95.60;;;;;;5100541;27;20039;-81
2021/12/11 12:28:01;;;;;;;12.77;2.08;;;8.20;97.70;;;;;;5100496;27;20494;-81
2021/12/11 12:30:38;;;;;;;0.45;0.35;;;8.20;98.60;;;;;;5100798;27;20047;-81
2021/12/11 12:33:05;;;;;;;0.65;0.47;;;8.10;99.00;;;;;;5117887;27;20127;-82
2021/12/11 12:35:31;;;;;;;0.32;0.32;;;8.20;99.30;;;;;;5099574;27;20043;-82
2021/12/11 12:37:59;;;;;;;2.15;0.32;;;8.20;99.70;;;;;;5134547;27;20400;-81
2021/12/11 12:40:36;;;;;;;0.50;0.25;;;8.10;99.90;;;;;;5117296;27;20039;-81
2021/12/11 12:43:21;;;;;;;1.85;0.85;;;7.90;99.90;;;;;;5117604;27;20039;-82
2021/12/11 12:45:51;;;;;;;1.98;1.35;;;7.60;99.90;;;;;;5118456;27;20075;-81
2021/12/11 12:48:21;;;;;;;0.88;0.60;;;7.40;99.90;;;;;;5118004;27;20047;-81
2021/12/11 12:51:01;;;;;;;2.05;1.20;;;7.20;99.90;;;;;;5099252;27;20050;-81
2021/12/11 12:53:33;;;;;;;0.98;0.45;;;6.90;99.90;;;;;;5098006;27;20494;-81
2021/12/11 12:56:17;;;;;;;0.22;0.22;;;6.80;99.90;;;;;;5117668;27;20407;-81
2021/12/11 12:58:54;;;;;;;1.27;0.17;;;6.70;99.90;;;;;;5117359;27;20039;-82
2021/12/11 13:01:26;;;;;;;1.23;0.20;;;6.50;99.90;;;;;;5098063;27;20073;-82
2021/12/11 13:03:54;;;;;;;0.20;0.17;;;6.40;99.90;;;;;;5099730;28;20139;-82
2021/12/11 13:06:24;;;;;;;0.10;0.10;;;6.40;99.90;;;;;;5099138;27;20043;-82
2021/12/11 13:09:00;;;;;;;0.32;0.20;;;6.30;99.90;;;;;;5117222;27;20097;-81
2021/12/11 13:11:35;;;;;;;0.70;0.22;;;6.20;99.90;;;;;;5116862;27;20502;-81
2021/12/11 13:14:01;;;;;;;;;;;6.10;99.90;;;;;;5099704;27;20441;-80
2021/12/11 13:16:34;;;;;;;0.15;0.15;;;5.80;99.90;;;;;;5099504;28;19919;-82
2021/12/11 13:19:09;;;;;;;0.32;0.30;;;5.50;99.90;;;;;;5100082;27;20046;-81
2021/12/11 13:21:42;;;;;;;2.47;0.80;;;5.20;99.90;;;;;;5099355;28;20035;-82
2021/12/11 13:24:13;;;;;;;0.40;0.40;;;4.80;99.90;;;;;;5099386;28;20122;-82
2021/12/11 13:26:43;;;;;;;0.95;0.60;;;4.70;99.90;;;;;;5115919;28;20124;-81
2021/12/11 13:29:17;;;;;;;1.35;0.55;;;4.30;99.90;;;;;;5116024;28;20050;-82
2021/12/11 13:32:00;;;;;;;0.63;0.50;;;4.60;99.90;;;;;;5099084;28;20047;-81
2021/12/11 13:34:38;;;;;;;0.10;0.10;;;3.90;99.90;;;;;;5116583;28;20082;-81
2021/12/11 13:37:09;;;;;;;0.68;0.43;;;3.80;99.90;;;;;;5099370;28;20058;-81